sensor_id;sensor_type;location;lat;lon;timestamp;P1;durP1;ratioP1;P2;durP2;ratioP2
38805;SDS011;25635;51.146;17.162;2022-11-20T00:01:34;102.97;;;45.07;;
38805;SDS011;25635;51.146;17.162;2022-11-20T00:04:00;105.90;;;45.57;;
38805;SDS011;25635;51.146;17.162;2022-11-20T00:06:27;89.93;;;42.37;;
38805;SDS011;25635;51.146;17.162;2022-11-20T00:08:56;80.33;;;36.90;;
38805;SDS011;25635;51.146;17.162;2022-11-20T00:11:26;92.50;;;40.63;;
38805;SDS011;25635;51.146;17.162;2022-11-20T00:13:56;95.23;;;41.37;;
38805;SDS011;25635;51.146;17.162;2022-11-20T00:16:26;95.53;;;43.93;;
38805;SDS011;25635;51.146;17.162;2022-11-20T00:18:55;98.77;;;45.53;;
38805;SDS011;25635;51.146;17.162;2022-11-20T00:21:26;89.17;;;40.37;;
38805;SDS011;25635;51.146;17.162;2022-11-20T00:23:54;86.07;;;39.33;;
38805;SDS011;25635;51.146;17.162;2022-11-20T00:26:23;96.00;;;41.47;;
38805;SDS011;25635;51.146;17.162;2022-11-20T00:28:57;110.20;;;46.90;;
38805;SDS011;25635;51.146;17.162;2022-11-20T00:31:25;123.70;;;51.87;;
38805;SDS011;25635;51.146;17.162;2022-11-20T00:33:53;134.93;;;53.40;;
38805;SDS011;25635;51.146;17.162;2022-11-20T00:36:20;120.67;;;48.70;;
38805;SDS011;25635;51.146;17.162;2022-11-20T00:38:52;106.00;;;45.80;;
38805;SDS011;25635;51.146;17.162;2022-11-20T00:41:21;104.33;;;44.37;;
38805;SDS011;25635;51.146;17.162;2022-11-20T00:43:48;91.80;;;40.20;;
38805;SDS011;25635;51.146;17.162;2022-11-20T00:46:18;89.47;;;39.93;;
38805;SDS011;25635;51.146;17.162;2022-11-20T00:48:48;85.37;;;37.57;;
38805;SDS011;25635;51.146;17.162;2022-11-20T00:51:15;76.90;;;34.73;;
38805;SDS011;25635;51.146;17.162;2022-11-20T00:53:45;74.13;;;33.87;;
38805;SDS011;25635;51.146;17.162;2022-11-20T00:56:13;75.03;;;34.80;;
38805;SDS011;25635;51.146;17.162;2022-11-20T00:58:42;77.87;;;35.13;;
38805;SDS011;25635;51.146;17.162;2022-11-20T01:01:11;73.07;;;33.80;;
38805;SDS011;25635;51.146;17.162;2022-11-20T01:03:42;66.17;;;32.90;;
38805;SDS011;25635;51.146;17.162;2022-11-20T01:06:16;72.70;;;33.73;;
38805;SDS011;25635;51.146;17.162;2022-11-20T01:08:45;73.27;;;34.63;;
38805;SDS011;25635;51.146;17.162;2022-11-20T01:11:16;72.67;;;33.20;;
38805;SDS011;25635;51.146;17.162;2022-11-20T01:13:46;68.47;;;32.73;;
38805;SDS011;25635;51.146;17.162;2022-11-20T01:16:19;60.87;;;30.60;;
38805;SDS011;25635;51.146;17.162;2022-11-20T01:18:53;63.03;;;30.17;;
38805;SDS011;25635;51.146;17.162;2022-11-20T01:21:26;59.13;;;29.50;;
38805;SDS011;25635;51.146;17.162;2022-11-20T01:23:56;60.03;;;29.93;;
38805;SDS011;25635;51.146;17.162;2022-11-20T01:26:24;61.43;;;30.03;;
38805;SDS011;25635;51.146;17.162;2022-11-20T01:28:54;62.03;;;29.40;;
38805;SDS011;25635;51.146;17.162;2022-11-20T01:31:28;59.87;;;28.57;;
38805;SDS011;25635;51.146;17.162;2022-11-20T01:33:58;61.87;;;29.50;;
38805;SDS011;25635;51.146;17.162;2022-11-20T01:36:28;69.43;;;31.17;;
38805;SDS011;25635;51.146;17.162;2022-11-20T01:38:58;66.07;;;30.30;;
38805;SDS011;25635;51.146;17.162;2022-11-20T01:41:27;66.43;;;29.57;;
38805;SDS011;25635;51.146;17.162;2022-11-20T01:44:15;57.97;;;27.43;;
38805;SDS011;25635;51.146;17.162;2022-11-20T01:46:54;62.20;;;28.80;;
38805;SDS011;25635;51.146;17.162;2022-11-20T01:49:27;56.23;;;26.67;;
38805;SDS011;25635;51.146;17.162;2022-11-20T01:52:17;51.40;;;25.13;;
38805;SDS011;25635;51.146;17.162;2022-11-20T01:54:59;54.70;;;25.43;;
38805;SDS011;25635;51.146;17.162;2022-11-20T01:57:36;56.53;;;26.77;;
38805;SDS011;25635;51.146;17.162;2022-11-20T02:00:09;56.03;;;27.27;;
38805;SDS011;25635;51.146;17.162;2022-11-20T02:02:39;52.97;;;25.77;;
38805;SDS011;25635;51.146;17.162;2022-11-20T02:05:14;56.40;;;26.73;;
38805;SDS011;25635;51.146;17.162;2022-11-20T02:07:44;58.03;;;26.33;;
38805;SDS011;25635;51.146;17.162;2022-11-20T02:10:12;62.37;;;27.97;;
38805;SDS011;25635;51.146;17.162;2022-11-20T02:12:38;58.60;;;26.60;;
38805;SDS011;25635;51.146;17.162;2022-11-20T02:15:23;54.47;;;26.23;;
38805;SDS011;25635;51.146;17.162;2022-11-20T02:17:50;53.43;;;25.03;;
38805;SDS011;25635;51.146;17.162;2022-11-20T02:20:16;52.70;;;23.43;;
38805;SDS011;25635;51.146;17.162;2022-11-20T02:22:51;49.67;;;24.93;;
38805;SDS011;25635;51.146;17.162;2022-11-20T02:25:32;54.37;;;25.07;;
38805;SDS011;25635;51.146;17.162;2022-11-20T02:28:01;51.30;;;25.43;;
38805;SDS011;25635;51.146;17.162;2022-11-20T02:30:28;51.13;;;24.90;;
38805;SDS011;25635;51.146;17.162;2022-11-20T02:32:55;43.47;;;23.20;;
38805;SDS011;25635;51.146;17.162;2022-11-20T02:37:53;53.43;;;24.40;;
38805;SDS011;25635;51.146;17.162;2022-11-20T02:40:22;51.53;;;24.93;;
38805;SDS011;25635;51.146;17.162;2022-11-20T02:42:57;53.13;;;25.23;;
38805;SDS011;25635;51.146;17.162;2022-11-20T02:45:21;55.00;;;25.30;;
38805;SDS011;25635;51.146;17.162;2022-11-20T02:47:49;56.43;;;25.57;;
38805;SDS011;25635;51.146;17.162;2022-11-20T02:50:16;57.93;;;26.30;;
38805;SDS011;25635;51.146;17.162;2022-11-20T02:52:42;55.30;;;25.80;;
38805;SDS011;25635;51.146;17.162;2022-11-20T02:55:09;56.07;;;24.13;;
38805;SDS011;25635;51.146;17.162;2022-11-20T02:57:36;54.23;;;25.33;;
38805;SDS011;25635;51.146;17.162;2022-11-20T03:00:03;53.93;;;25.70;;
38805;SDS011;25635;51.146;17.162;2022-11-20T03:02:32;56.27;;;25.87;;
38805;SDS011;25635;51.146;17.162;2022-11-20T03:04:59;48.00;;;24.50;;
38805;SDS011;25635;51.146;17.162;2022-11-20T03:07:25;54.57;;;25.67;;
38805;SDS011;25635;51.146;17.162;2022-11-20T03:09:52;51.20;;;25.23;;
38805;SDS011;25635;51.146;17.162;2022-11-20T03:12:18;54.93;;;26.43;;
38805;SDS011;25635;51.146;17.162;2022-11-20T03:14:44;53.60;;;26.47;;
38805;SDS011;25635;51.146;17.162;2022-11-20T03:17:10;55.23;;;26.40;;
38805;SDS011;25635;51.146;17.162;2022-11-20T03:19:36;58.33;;;28.93;;
38805;SDS011;25635;51.146;17.162;2022-11-20T03:22:02;59.37;;;29.03;;
38805;SDS011;25635;51.146;17.162;2022-11-20T03:24:29;56.13;;;26.93;;
38805;SDS011;25635;51.146;17.162;2022-11-20T03:26:55;57.17;;;25.63;;
38805;SDS011;25635;51.146;17.162;2022-11-20T03:29:21;52.03;;;24.57;;
38805;SDS011;25635;51.146;17.162;2022-11-20T03:31:48;54.60;;;25.03;;
38805;SDS011;25635;51.146;17.162;2022-11-20T03:34:14;45.83;;;24.43;;
38805;SDS011;25635;51.146;17.162;2022-11-20T03:36:40;52.97;;;25.03;;
38805;SDS011;25635;51.146;17.162;2022-11-20T03:39:08;52.47;;;26.37;;
38805;SDS011;25635;51.146;17.162;2022-11-20T03:41:39;51.33;;;25.20;;
38805;SDS011;25635;51.146;17.162;2022-11-20T03:44:08;52.77;;;25.00;;
38805;SDS011;25635;51.146;17.162;2022-11-20T03:46:36;51.77;;;23.67;;
38805;SDS011;25635;51.146;17.162;2022-11-20T03:49:03;48.60;;;24.37;;
38805;SDS011;25635;51.146;17.162;2022-11-20T03:51:31;49.57;;;23.33;;
38805;SDS011;25635;51.146;17.162;2022-11-20T03:54:01;48.30;;;23.37;;
38805;SDS011;25635;51.146;17.162;2022-11-20T03:56:32;46.70;;;23.27;;
38805;SDS011;25635;51.146;17.162;2022-11-20T03:59:02;46.27;;;22.43;;
38805;SDS011;25635;51.146;17.162;2022-11-20T04:01:30;46.83;;;23.47;;
38805;SDS011;25635;51.146;17.162;2022-11-20T04:03:59;47.00;;;22.07;;
38805;SDS011;25635;51.146;17.162;2022-11-20T04:06:27;46.63;;;23.53;;
38805;SDS011;25635;51.146;17.162;2022-11-20T04:09:02;48.40;;;22.57;;
38805;SDS011;25635;51.146;17.162;2022-11-20T04:11:30;46.50;;;22.97;;
38805;SDS011;25635;51.146;17.162;2022-11-20T04:14:00;44.60;;;23.03;;
38805;SDS011;25635;51.146;17.162;2022-11-20T04:16:30;51.90;;;22.70;;
38805;SDS011;25635;51.146;17.162;2022-11-20T04:19:00;46.60;;;21.60;;
38805;SDS011;25635;51.146;17.162;2022-11-20T04:21:29;55.83;;;24.87;;
38805;SDS011;25635;51.146;17.162;2022-11-20T04:23:56;50.03;;;23.37;;
38805;SDS011;25635;51.146;17.162;2022-11-20T04:26:23;46.30;;;22.30;;
38805;SDS011;25635;51.146;17.162;2022-11-20T04:28:53;47.83;;;23.33;;
38805;SDS011;25635;51.146;17.162;2022-11-20T04:31:21;47.83;;;22.07;;
38805;SDS011;25635;51.146;17.162;2022-11-20T04:33:55;44.27;;;22.65;;
38805;SDS011;25635;51.146;17.162;2022-11-20T04:36:28;47.63;;;22.57;;
38805;SDS011;25635;51.146;17.162;2022-11-20T04:38:56;46.03;;;21.93;;
38805;SDS011;25635;51.146;17.162;2022-11-20T04:41:26;49.80;;;23.30;;
38805;SDS011;25635;51.146;17.162;2022-11-20T04:43:56;54.00;;;24.77;;
38805;SDS011;25635;51.146;17.162;2022-11-20T04:46:29;47.27;;;24.40;;
38805;SDS011;25635;51.146;17.162;2022-11-20T04:48:59;50.37;;;24.00;;
38805;SDS011;25635;51.146;17.162;2022-11-20T04:51:26;52.03;;;25.33;;
38805;SDS011;25635;51.146;17.162;2022-11-20T04:53:54;51.67;;;22.97;;
38805;SDS011;25635;51.146;17.162;2022-11-20T04:56:20;50.13;;;23.03;;
38805;SDS011;25635;51.146;17.162;2022-11-20T04:58:46;49.40;;;22.90;;
38805;SDS011;25635;51.146;17.162;2022-11-20T05:01:13;44.93;;;22.63;;
38805;SDS011;25635;51.146;17.162;2022-11-20T05:03:43;55.97;;;25.67;;
38805;SDS011;25635;51.146;17.162;2022-11-20T05:06:11;47.27;;;22.47;;
38805;SDS011;25635;51.146;17.162;2022-11-20T05:08:40;44.43;;;22.70;;
38805;SDS011;25635;51.146;17.162;2022-11-20T05:11:08;45.80;;;22.43;;
38805;SDS011;25635;51.146;17.162;2022-11-20T05:13:36;50.80;;;22.87;;
38805;SDS011;25635;51.146;17.162;2022-11-20T05:16:04;44.40;;;21.97;;
38805;SDS011;25635;51.146;17.162;2022-11-20T05:18:35;51.67;;;23.60;;
38805;SDS011;25635;51.146;17.162;2022-11-20T05:21:03;47.27;;;23.13;;
38805;SDS011;25635;51.146;17.162;2022-11-20T05:23:30;40.20;;;21.93;;
38805;SDS011;25635;51.146;17.162;2022-11-20T05:25:58;45.57;;;22.23;;
38805;SDS011;25635;51.146;17.162;2022-11-20T05:28:25;47.40;;;22.40;;
38805;SDS011;25635;51.146;17.162;2022-11-20T05:30:53;42.83;;;21.47;;
38805;SDS011;25635;51.146;17.162;2022-11-20T05:33:20;44.63;;;22.03;;
38805;SDS011;25635;51.146;17.162;2022-11-20T05:35:47;52.80;;;24.20;;
38805;SDS011;25635;51.146;17.162;2022-11-20T05:38:14;51.20;;;22.77;;
38805;SDS011;25635;51.146;17.162;2022-11-20T05:40:41;45.43;;;21.80;;
38805;SDS011;25635;51.146;17.162;2022-11-20T05:43:07;52.67;;;25.43;;
38805;SDS011;25635;51.146;17.162;2022-11-20T05:45:33;63.57;;;26.47;;
38805;SDS011;25635;51.146;17.162;2022-11-20T05:47:59;57.53;;;25.10;;
38805;SDS011;25635;51.146;17.162;2022-11-20T05:50:27;56.97;;;26.10;;
38805;SDS011;25635;51.146;17.162;2022-11-20T05:52:54;62.13;;;27.50;;
38805;SDS011;25635;51.146;17.162;2022-11-20T05:55:20;56.27;;;26.20;;
38805;SDS011;25635;51.146;17.162;2022-11-20T05:57:46;61.90;;;27.13;;
38805;SDS011;25635;51.146;17.162;2022-11-20T06:00:12;54.53;;;26.30;;
38805;SDS011;25635;51.146;17.162;2022-11-20T06:02:40;55.77;;;25.73;;
38805;SDS011;25635;51.146;17.162;2022-11-20T06:05:06;53.90;;;25.20;;
38805;SDS011;25635;51.146;17.162;2022-11-20T06:07:33;56.17;;;26.13;;
38805;SDS011;25635;51.146;17.162;2022-11-20T06:09:59;60.23;;;27.13;;
38805;SDS011;25635;51.146;17.162;2022-11-20T06:12:25;53.20;;;25.33;;
38805;SDS011;25635;51.146;17.162;2022-11-20T06:14:52;53.57;;;25.60;;
38805;SDS011;25635;51.146;17.162;2022-11-20T06:17:18;50.50;;;24.70;;
38805;SDS011;25635;51.146;17.162;2022-11-20T06:19:44;52.33;;;23.70;;
38805;SDS011;25635;51.146;17.162;2022-11-20T06:22:10;54.80;;;24.60;;
38805;SDS011;25635;51.146;17.162;2022-11-20T06:24:36;53.10;;;25.30;;
38805;SDS011;25635;51.146;17.162;2022-11-20T06:27:02;50.87;;;23.90;;
38805;SDS011;25635;51.146;17.162;2022-11-20T06:29:29;51.83;;;24.40;;
38805;SDS011;25635;51.146;17.162;2022-11-20T06:31:55;50.30;;;24.43;;
38805;SDS011;25635;51.146;17.162;2022-11-20T06:34:21;56.50;;;26.50;;
38805;SDS011;25635;51.146;17.162;2022-11-20T06:36:47;59.63;;;26.33;;
38805;SDS011;25635;51.146;17.162;2022-11-20T06:39:13;49.93;;;25.53;;
38805;SDS011;25635;51.146;17.162;2022-11-20T06:41:39;59.37;;;27.63;;
38805;SDS011;25635;51.146;17.162;2022-11-20T06:44:05;49.30;;;23.90;;
38805;SDS011;25635;51.146;17.162;2022-11-20T06:46:31;54.57;;;25.60;;
38805;SDS011;25635;51.146;17.162;2022-11-20T06:48:57;56.43;;;27.23;;
38805;SDS011;25635;51.146;17.162;2022-11-20T06:51:24;51.33;;;24.93;;
38805;SDS011;25635;51.146;17.162;2022-11-20T06:53:50;55.90;;;25.43;;
38805;SDS011;25635;51.146;17.162;2022-11-20T06:56:16;57.40;;;26.30;;
38805;SDS011;25635;51.146;17.162;2022-11-20T06:58:43;49.00;;;24.93;;
38805;SDS011;25635;51.146;17.162;2022-11-20T07:01:10;57.83;;;31.83;;
38805;SDS011;25635;51.146;17.162;2022-11-20T07:03:38;57.93;;;30.17;;
38805;SDS011;25635;51.146;17.162;2022-11-20T07:06:05;47.70;;;24.20;;
38805;SDS011;25635;51.146;17.162;2022-11-20T07:08:35;47.13;;;24.07;;
38805;SDS011;25635;51.146;17.162;2022-11-20T07:11:02;47.33;;;23.80;;
38805;SDS011;25635;51.146;17.162;2022-11-20T07:13:32;48.37;;;24.50;;
38805;SDS011;25635;51.146;17.162;2022-11-20T07:15:59;49.60;;;24.10;;
38805;SDS011;25635;51.146;17.162;2022-11-20T07:18:30;46.53;;;22.80;;
38805;SDS011;25635;51.146;17.162;2022-11-20T07:20:59;47.73;;;24.60;;
38805;SDS011;25635;51.146;17.162;2022-11-20T07:23:29;48.97;;;23.43;;
38805;SDS011;25635;51.146;17.162;2022-11-20T07:25:55;50.87;;;26.33;;
38805;SDS011;25635;51.146;17.162;2022-11-20T07:28:21;60.73;;;30.33;;
38805;SDS011;25635;51.146;17.162;2022-11-20T07:30:51;65.70;;;29.07;;
38805;SDS011;25635;51.146;17.162;2022-11-20T07:33:18;72.43;;;34.50;;
38805;SDS011;25635;51.146;17.162;2022-11-20T07:35:45;84.50;;;35.47;;
38805;SDS011;25635;51.146;17.162;2022-11-20T07:38:11;70.17;;;31.33;;
38805;SDS011;25635;51.146;17.162;2022-11-20T07:40:37;62.67;;;27.97;;
38805;SDS011;25635;51.146;17.162;2022-11-20T07:43:03;56.60;;;27.07;;
38805;SDS011;25635;51.146;17.162;2022-11-20T07:45:29;60.50;;;28.43;;
38805;SDS011;25635;51.146;17.162;2022-11-20T07:47:55;58.07;;;29.00;;
38805;SDS011;25635;51.146;17.162;2022-11-20T07:50:21;52.40;;;26.73;;
38805;SDS011;25635;51.146;17.162;2022-11-20T07:52:47;51.63;;;25.53;;
38805;SDS011;25635;51.146;17.162;2022-11-20T07:55:14;55.53;;;26.43;;
38805;SDS011;25635;51.146;17.162;2022-11-20T07:57:40;52.43;;;25.53;;
38805;SDS011;25635;51.146;17.162;2022-11-20T08:00:07;53.00;;;26.80;;
38805;SDS011;25635;51.146;17.162;2022-11-20T08:02:37;53.23;;;26.53;;
38805;SDS011;25635;51.146;17.162;2022-11-20T08:05:06;54.87;;;26.27;;
38805;SDS011;25635;51.146;17.162;2022-11-20T08:07:37;59.07;;;29.23;;
38805;SDS011;25635;51.146;17.162;2022-11-20T08:10:09;50.87;;;27.10;;
38805;SDS011;25635;51.146;17.162;2022-11-20T08:12:49;53.77;;;26.63;;
38805;SDS011;25635;51.146;17.162;2022-11-20T08:15:33;54.10;;;25.73;;
38805;SDS011;25635;51.146;17.162;2022-11-20T08:18:01;50.30;;;26.67;;
38805;SDS011;25635;51.146;17.162;2022-11-20T08:20:31;55.10;;;25.77;;
38805;SDS011;25635;51.146;17.162;2022-11-20T08:22:58;46.87;;;26.43;;
38805;SDS011;25635;51.146;17.162;2022-11-20T08:25:27;51.10;;;26.30;;
38805;SDS011;25635;51.146;17.162;2022-11-20T08:27:56;48.77;;;25.27;;
38805;SDS011;25635;51.146;17.162;2022-11-20T08:30:25;54.27;;;26.23;;
38805;SDS011;25635;51.146;17.162;2022-11-20T08:32:52;47.93;;;26.30;;
38805;SDS011;25635;51.146;17.162;2022-11-20T08:35:19;46.97;;;24.20;;
38805;SDS011;25635;51.146;17.162;2022-11-20T08:37:47;50.60;;;26.13;;
38805;SDS011;25635;51.146;17.162;2022-11-20T08:40:13;47.30;;;25.33;;
38805;SDS011;25635;51.146;17.162;2022-11-20T08:42:47;53.53;;;29.53;;
38805;SDS011;25635;51.146;17.162;2022-11-20T08:45:15;51.83;;;27.47;;
38805;SDS011;25635;51.146;17.162;2022-11-20T08:47:44;51.97;;;25.10;;
38805;SDS011;25635;51.146;17.162;2022-11-20T08:50:12;49.03;;;26.27;;
38805;SDS011;25635;51.146;17.162;2022-11-20T08:52:41;50.57;;;26.10;;
38805;SDS011;25635;51.146;17.162;2022-11-20T08:55:08;48.43;;;25.00;;
38805;SDS011;25635;51.146;17.162;2022-11-20T08:57:35;50.10;;;25.53;;
38805;SDS011;25635;51.146;17.162;2022-11-20T09:00:03;43.13;;;23.23;;
38805;SDS011;25635;51.146;17.162;2022-11-20T09:02:32;43.57;;;24.27;;
38805;SDS011;25635;51.146;17.162;2022-11-20T09:04:59;46.60;;;26.27;;
38805;SDS011;25635;51.146;17.162;2022-11-20T09:07:27;45.23;;;24.73;;
38805;SDS011;25635;51.146;17.162;2022-11-20T09:09:55;48.27;;;23.93;;
38805;SDS011;25635;51.146;17.162;2022-11-20T09:12:22;51.93;;;26.43;;
38805;SDS011;25635;51.146;17.162;2022-11-20T09:14:48;46.23;;;25.30;;
38805;SDS011;25635;51.146;17.162;2022-11-20T09:17:14;45.77;;;24.67;;
38805;SDS011;25635;51.146;17.162;2022-11-20T09:19:40;50.07;;;25.73;;
38805;SDS011;25635;51.146;17.162;2022-11-20T09:22:06;44.33;;;25.27;;
38805;SDS011;25635;51.146;17.162;2022-11-20T09:24:33;46.73;;;25.20;;
38805;SDS011;25635;51.146;17.162;2022-11-20T09:27:01;44.57;;;25.43;;
38805;SDS011;25635;51.146;17.162;2022-11-20T09:29:29;45.97;;;24.53;;
38805;SDS011;25635;51.146;17.162;2022-11-20T09:31:55;46.77;;;24.43;;
38805;SDS011;25635;51.146;17.162;2022-11-20T09:34:21;44.27;;;24.83;;
38805;SDS011;25635;51.146;17.162;2022-11-20T09:36:47;47.90;;;25.07;;
38805;SDS011;25635;51.146;17.162;2022-11-20T09:39:13;44.77;;;23.63;;
38805;SDS011;25635;51.146;17.162;2022-11-20T09:44:49;45.83;;;22.97;;
38805;SDS011;25635;51.146;17.162;2022-11-20T09:47:33;41.13;;;22.83;;
38805;SDS011;25635;51.146;17.162;2022-11-20T09:56:01;34.33;;;19.10;;
38805;SDS011;25635;51.146;17.162;2022-11-20T09:58:31;33.87;;;19.00;;
38805;SDS011;25635;51.146;17.162;2022-11-20T10:03:56;32.43;;;19.07;;
38805;SDS011;25635;51.146;17.162;2022-11-20T10:06:30;39.70;;;20.20;;
38805;SDS011;25635;51.146;17.162;2022-11-20T10:09:16;34.97;;;19.47;;
38805;SDS011;25635;51.146;17.162;2022-11-20T10:14:39;34.60;;;20.23;;
38805;SDS011;25635;51.146;17.162;2022-11-20T10:20:21;32.20;;;17.90;;
38805;SDS011;25635;51.146;17.162;2022-11-20T10:22:59;35.00;;;20.67;;
38805;SDS011;25635;51.146;17.162;2022-11-20T10:26:02;34.37;;;19.00;;
38805;SDS011;25635;51.146;17.162;2022-11-20T10:28:56;33.73;;;19.80;;
38805;SDS011;25635;51.146;17.162;2022-11-20T10:31:40;35.57;;;20.20;;
38805;SDS011;25635;51.146;17.162;2022-11-20T10:34:21;36.43;;;21.27;;
38805;SDS011;25635;51.146;17.162;2022-11-20T10:37:02;34.50;;;20.77;;
38805;SDS011;25635;51.146;17.162;2022-11-20T10:39:36;37.73;;;22.53;;
38805;SDS011;25635;51.146;17.162;2022-11-20T10:42:37;36.57;;;20.97;;
38805;SDS011;25635;51.146;17.162;2022-11-20T10:48:07;36.90;;;21.57;;
38805;SDS011;25635;51.146;17.162;2022-11-20T10:50:39;39.03;;;21.40;;
38805;SDS011;25635;51.146;17.162;2022-11-20T10:53:12;35.37;;;20.43;;
38805;SDS011;25635;51.146;17.162;2022-11-20T10:56:00;33.83;;;19.30;;
38805;SDS011;25635;51.146;17.162;2022-11-20T11:01:13;37.53;;;20.00;;
38805;SDS011;25635;51.146;17.162;2022-11-20T11:03:43;32.27;;;19.30;;
38805;SDS011;25635;51.146;17.162;2022-11-20T11:06:12;32.67;;;18.23;;
38805;SDS011;25635;51.146;17.162;2022-11-20T11:08:58;32.97;;;18.57;;
38805;SDS011;25635;51.146;17.162;2022-11-20T11:11:30;32.27;;;19.63;;
38805;SDS011;25635;51.146;17.162;2022-11-20T11:14:06;36.07;;;20.37;;
38805;SDS011;25635;51.146;17.162;2022-11-20T11:16:51;33.07;;;19.27;;
38805;SDS011;25635;51.146;17.162;2022-11-20T11:19:20;34.07;;;20.47;;
38805;SDS011;25635;51.146;17.162;2022-11-20T11:21:47;34.93;;;20.73;;
38805;SDS011;25635;51.146;17.162;2022-11-20T11:24:22;36.20;;;20.77;;
38805;SDS011;25635;51.146;17.162;2022-11-20T11:26:57;34.80;;;20.17;;
38805;SDS011;25635;51.146;17.162;2022-11-20T11:29:24;36.13;;;22.13;;
38805;SDS011;25635;51.146;17.162;2022-11-20T11:32:03;42.13;;;23.80;;
38805;SDS011;25635;51.146;17.162;2022-11-20T11:34:30;41.90;;;23.93;;
38805;SDS011;25635;51.146;17.162;2022-11-20T11:36:57;39.10;;;21.23;;
38805;SDS011;25635;51.146;17.162;2022-11-20T11:39:26;34.43;;;20.30;;
38805;SDS011;25635;51.146;17.162;2022-11-20T11:41:54;33.57;;;19.90;;
38805;SDS011;25635;51.146;17.162;2022-11-20T11:44:26;36.50;;;21.53;;
38805;SDS011;25635;51.146;17.162;2022-11-20T11:47:22;34.20;;;19.43;;
38805;SDS011;25635;51.146;17.162;2022-11-20T11:55:34;36.80;;;21.47;;
38805;SDS011;25635;51.146;17.162;2022-11-20T12:07:16;26.50;;;16.33;;
38805;SDS011;25635;51.146;17.162;2022-11-20T12:09:49;27.10;;;16.43;;
38805;SDS011;25635;51.146;17.162;2022-11-20T12:12:20;28.50;;;16.50;;
38805;SDS011;25635;51.146;17.162;2022-11-20T12:14:50;22.57;;;14.10;;
38805;SDS011;25635;51.146;17.162;2022-11-20T12:17:19;26.67;;;16.90;;
38805;SDS011;25635;51.146;17.162;2022-11-20T12:19:45;25.93;;;15.80;;
38805;SDS011;25635;51.146;17.162;2022-11-20T12:25:20;27.95;;;15.20;;
38805;SDS011;25635;51.146;17.162;2022-11-20T12:30:57;28.15;;;16.67;;
38805;SDS011;25635;51.146;17.162;2022-11-20T12:36:39;30.97;;;17.37;;
38805;SDS011;25635;51.146;17.162;2022-11-20T12:45:19;31.80;;;18.27;;
38805;SDS011;25635;51.146;17.162;2022-11-20T12:54:11;23.97;;;14.47;;
38805;SDS011;25635;51.146;17.162;2022-11-20T12:57:06;25.67;;;14.50;;
38805;SDS011;25635;51.146;17.162;2022-11-20T13:02:26;28.37;;;15.43;;
38805;SDS011;25635;51.146;17.162;2022-11-20T13:08:52;25.53;;;15.30;;
38805;SDS011;25635;51.146;17.162;2022-11-20T13:11:31;23.40;;;14.33;;
38805;SDS011;25635;51.146;17.162;2022-11-20T13:14:08;25.90;;;14.27;;
38805;SDS011;25635;51.146;17.162;2022-11-20T13:19:52;24.83;;;15.17;;
38805;SDS011;25635;51.146;17.162;2022-11-20T13:22:42;24.80;;;14.57;;
38805;SDS011;25635;51.146;17.162;2022-11-20T13:25:30;24.93;;;15.10;;
38805;SDS011;25635;51.146;17.162;2022-11-20T13:30:50;22.30;;;13.50;;
38805;SDS011;25635;51.146;17.162;2022-11-20T13:33:22;28.30;;;16.35;;
38805;SDS011;25635;51.146;17.162;2022-11-20T13:36:00;24.80;;;15.70;;
38805;SDS011;25635;51.146;17.162;2022-11-20T13:38:43;25.13;;;15.73;;
38805;SDS011;25635;51.146;17.162;2022-11-20T13:41:26;24.98;;;14.93;;
38805;SDS011;25635;51.146;17.162;2022-11-20T13:43:59;22.47;;;13.20;;
38805;SDS011;25635;51.146;17.162;2022-11-20T13:46:40;23.80;;;13.97;;
38805;SDS011;25635;51.146;17.162;2022-11-20T13:52:38;23.40;;;13.40;;
38805;SDS011;25635;51.146;17.162;2022-11-20T14:00:41;50.37;;;28.03;;
38805;SDS011;25635;51.146;17.162;2022-11-20T14:03:24;46.83;;;23.97;;
38805;SDS011;25635;51.146;17.162;2022-11-20T14:05:55;39.83;;;22.67;;
38805;SDS011;25635;51.146;17.162;2022-11-20T14:08:35;44.23;;;22.57;;
38805;SDS011;25635;51.146;17.162;2022-11-20T14:11:11;40.47;;;22.30;;
38805;SDS011;25635;51.146;17.162;2022-11-20T14:13:56;45.20;;;24.07;;
38805;SDS011;25635;51.146;17.162;2022-11-20T14:16:30;41.15;;;21.57;;
38805;SDS011;25635;51.146;17.162;2022-11-20T14:21:54;40.40;;;22.77;;
38805;SDS011;25635;51.146;17.162;2022-11-20T14:24:33;49.47;;;26.73;;
38805;SDS011;25635;51.146;17.162;2022-11-20T14:26:59;45.43;;;23.77;;
38805;SDS011;25635;51.146;17.162;2022-11-20T14:29:33;47.57;;;25.13;;
38805;SDS011;25635;51.146;17.162;2022-11-20T14:32:00;46.73;;;25.50;;
38805;SDS011;25635;51.146;17.162;2022-11-20T14:34:29;40.30;;;23.53;;
38805;SDS011;25635;51.146;17.162;2022-11-20T14:36:59;44.10;;;23.60;;
38805;SDS011;25635;51.146;17.162;2022-11-20T14:39:30;41.03;;;22.83;;
38805;SDS011;25635;51.146;17.162;2022-11-20T14:42:00;39.50;;;21.40;;
38805;SDS011;25635;51.146;17.162;2022-11-20T14:44:32;56.63;;;25.50;;
38805;SDS011;25635;51.146;17.162;2022-11-20T14:46:59;53.27;;;26.53;;
38805;SDS011;25635;51.146;17.162;2022-11-20T14:49:29;60.80;;;27.93;;
38805;SDS011;25635;51.146;17.162;2022-11-20T14:52:01;48.73;;;24.50;;
38805;SDS011;25635;51.146;17.162;2022-11-20T14:54:46;42.63;;;21.80;;
38805;SDS011;25635;51.146;17.162;2022-11-20T14:57:20;40.60;;;21.70;;
38805;SDS011;25635;51.146;17.162;2022-11-20T15:00:03;47.07;;;23.43;;
38805;SDS011;25635;51.146;17.162;2022-11-20T15:02:43;38.17;;;20.90;;
38805;SDS011;25635;51.146;17.162;2022-11-20T15:05:12;38.73;;;20.77;;
38805;SDS011;25635;51.146;17.162;2022-11-20T15:07:42;36.57;;;20.17;;
38805;SDS011;25635;51.146;17.162;2022-11-20T15:10:12;42.47;;;21.33;;
38805;SDS011;25635;51.146;17.162;2022-11-20T15:12:57;38.03;;;21.50;;
38805;SDS011;25635;51.146;17.162;2022-11-20T15:15:36;31.90;;;18.43;;
38805;SDS011;25635;51.146;17.162;2022-11-20T17:32:57;86.07;;;39.90;;
38805;SDS011;25635;51.146;17.162;2022-11-20T17:35:23;69.80;;;34.17;;
38805;SDS011;25635;51.146;17.162;2022-11-20T17:37:49;69.83;;;35.07;;
38805;SDS011;25635;51.146;17.162;2022-11-20T17:40:15;70.77;;;34.17;;
38805;SDS011;25635;51.146;17.162;2022-11-20T17:42:42;64.57;;;32.43;;
38805;SDS011;25635;51.146;17.162;2022-11-20T17:48:46;52.87;;;25.73;;
38805;SDS011;25635;51.146;17.162;2022-11-20T17:51:21;49.17;;;23.37;;
38805;SDS011;25635;51.146;17.162;2022-11-20T17:53:51;53.43;;;25.57;;
38805;SDS011;25635;51.146;17.162;2022-11-20T17:56:20;49.37;;;24.20;;
38805;SDS011;25635;51.146;17.162;2022-11-20T17:59:06;48.70;;;26.80;;
38805;SDS011;25635;51.146;17.162;2022-11-20T18:01:36;46.77;;;23.73;;
38805;SDS011;25635;51.146;17.162;2022-11-20T18:04:03;47.83;;;24.90;;
38805;SDS011;25635;51.146;17.162;2022-11-20T18:06:30;44.77;;;23.47;;
38805;SDS011;25635;51.146;17.162;2022-11-20T18:16:38;79.97;;;30.53;;
38805;SDS011;25635;51.146;17.162;2022-11-20T18:19:11;73.60;;;29.83;;
38805;SDS011;25635;51.146;17.162;2022-11-20T18:21:41;53.53;;;24.67;;